sensor_id;sensor_type;location;lat;lon;timestamp;pressure;altitude;pressure_sealevel;temperature;humidity
32456;BME280;18912;43.270;27.942;2023-04-06T00:01:30;97706.13;;;10.44;60.40
32456;BME280;18912;43.270;27.942;2023-04-06T00:03:55;97716.59;;;10.65;59.79
32456;BME280;18912;43.270;27.942;2023-04-06T00:06:22;97713.69;;;10.98;58.56
32456;BME280;18912;43.270;27.942;2023-04-06T00:08:48;97707.72;;;11.14;57.50
32456;BME280;18912;43.270;27.942;2023-04-06T00:11:13;97709.22;;;10.48;57.86
32456;BME280;18912;43.270;27.942;2023-04-06T00:13:38;97701.19;;;10.34;56.89
32456;BME280;18912;43.270;27.942;2023-04-06T00:16:05;97704.22;;;10.00;57.06
32456;BME280;18912;43.270;27.942;2023-04-06T00:18:31;97707.88;;;10.25;56.68
32456;BME280;18912;43.270;27.942;2023-04-06T00:20:57;97711.03;;;10.16;57.12
32456;BME280;18912;43.270;27.942;2023-04-06T00:23:22;97705.75;;;10.34;57.08
32456;BME280;18912;43.270;27.942;2023-04-06T00:25:48;97712.00;;;10.28;57.23
32456;BME280;18912;43.270;27.942;2023-04-06T00:28:13;97707.72;;;10.14;56.96
32456;BME280;18912;43.270;27.942;2023-04-06T00:30:40;97702.19;;;9.83;57.16
32456;BME280;18912;43.270;27.942;2023-04-06T00:33:05;97701.38;;;9.76;57.70
32456;BME280;18912;43.270;27.942;2023-04-06T00:35:31;97698.69;;;9.69;57.68
32456;BME280;18912;43.270;27.942;2023-04-06T00:37:56;97701.63;;;9.48;57.98
32456;BME280;18912;43.270;27.942;2023-04-06T00:40:22;97692.69;;;9.61;57.90
32456;BME280;18912;43.270;27.942;2023-04-06T00:42:48;97686.00;;;9.83;57.20
32456;BME280;18912;43.270;27.942;2023-04-06T00:45:13;97698.91;;;9.61;57.82
32456;BME280;18912;43.270;27.942;2023-04-06T00:47:39;97687.44;;;9.79;57.32
32456;BME280;18912;43.270;27.942;2023-04-06T00:50:05;97680.72;;;9.24;58.83
32456;BME280;18912;43.270;27.942;2023-04-06T00:52:30;97682.75;;;9.55;58.16
32456;BME280;18912;43.270;27.942;2023-04-06T00:54:56;97682.38;;;9.18;58.96
32456;BME280;18912;43.270;27.942;2023-04-06T00:57:22;97678.56;;;9.72;57.93
32456;BME280;18912;43.270;27.942;2023-04-06T00:59:47;97684.38;;;9.62;58.09
32456;BME280;18912;43.270;27.942;2023-04-06T01:02:13;97671.78;;;9.50;57.72
32456;BME280;18912;43.270;27.942;2023-04-06T01:04:38;97669.88;;;9.50;57.87
32456;BME280;18912;43.270;27.942;2023-04-06T01:07:04;97676.34;;;9.42;57.72
32456;BME280;18912;43.270;27.942;2023-04-06T01:09:30;97680.94;;;9.22;58.06
32456;BME280;18912;43.270;27.942;2023-04-06T01:11:58;97674.91;;;9.27;57.54
32456;BME280;18912;43.270;27.942;2023-04-06T01:14:25;97671.56;;;9.44;57.19
32456;BME280;18912;43.270;27.942;2023-04-06T01:16:51;97672.34;;;9.58;56.90
32456;BME280;18912;43.270;27.942;2023-04-06T01:19:17;97678.47;;;8.88;57.66
32456;BME280;18912;43.270;27.942;2023-04-06T01:21:42;97673.06;;;8.88;57.77
32456;BME280;18912;43.270;27.942;2023-04-06T01:24:08;97671.41;;;8.87;57.83
32456;BME280;18912;43.270;27.942;2023-04-06T01:26:34;97673.47;;;9.05;57.03
32456;BME280;18912;43.270;27.942;2023-04-06T01:29:01;97669.13;;;8.58;58.09
32456;BME280;18912;43.270;27.942;2023-04-06T01:31:28;97662.47;;;8.54;57.62
32456;BME280;18912;43.270;27.942;2023-04-06T01:33:54;97664.97;;;8.62;57.50
32456;BME280;18912;43.270;27.942;2023-04-06T01:36:20;97670.38;;;8.88;56.91
32456;BME280;18912;43.270;27.942;2023-04-06T01:38:46;97655.47;;;8.79;56.70
32456;BME280;18912;43.270;27.942;2023-04-06T01:41:11;97657.28;;;8.85;56.47
32456;BME280;18912;43.270;27.942;2023-04-06T01:43:37;97652.75;;;8.92;56.16
32456;BME280;18912;43.270;27.942;2023-04-06T01:46:03;97650.28;;;8.91;56.35
32456;BME280;18912;43.270;27.942;2023-04-06T01:48:28;97660.63;;;9.13;55.63
32456;BME280;18912;43.270;27.942;2023-04-06T01:50:54;97649.22;;;8.85;55.97
32456;BME280;18912;43.270;27.942;2023-04-06T01:53:20;97653.38;;;8.88;56.14
32456;BME280;18912;43.270;27.942;2023-04-06T01:55:45;97633.66;;;8.48;56.91
32456;BME280;18912;43.270;27.942;2023-04-06T01:58:11;97655.66;;;8.97;56.29
32456;BME280;18912;43.270;27.942;2023-04-06T02:00:37;97646.72;;;8.84;56.03
32456;BME280;18912;43.270;27.942;2023-04-06T02:03:02;97648.78;;;9.21;55.36
32456;BME280;18912;43.270;27.942;2023-04-06T02:05:29;97646.75;;;8.90;55.79
32456;BME280;18912;43.270;27.942;2023-04-06T02:07:56;97644.88;;;8.71;55.95
32456;BME280;18912;43.270;27.942;2023-04-06T02:10:22;97649.22;;;8.72;56.24
32456;BME280;18912;43.270;27.942;2023-04-06T02:12:48;97638.03;;;8.75;55.94
32456;BME280;18912;43.270;27.942;2023-04-06T02:15:13;97651.72;;;8.80;56.03
32456;BME280;18912;43.270;27.942;2023-04-06T02:17:39;97645.47;;;9.12;55.23
32456;BME280;18912;43.270;27.942;2023-04-06T02:20:05;97641.34;;;8.97;55.39
32456;BME280;18912;43.270;27.942;2023-04-06T02:22:31;97641.75;;;8.81;55.21
32456;BME280;18912;43.270;27.942;2023-04-06T02:24:56;97644.44;;;9.07;54.83
32456;BME280;18912;43.270;27.942;2023-04-06T02:27:22;97650.44;;;9.28;54.27
32456;BME280;18912;43.270;27.942;2023-04-06T02:29:48;97643.00;;;9.17;54.45
32456;BME280;18912;43.270;27.942;2023-04-06T02:32:13;97634.44;;;9.33;53.74
32456;BME280;18912;43.270;27.942;2023-04-06T02:34:39;97641.31;;;9.10;54.21
32456;BME280;18912;43.270;27.942;2023-04-06T02:37:04;97645.28;;;8.48;55.35
32456;BME280;18912;43.270;27.942;2023-04-06T02:39:30;97643.00;;;8.72;55.42
32456;BME280;18912;43.270;27.942;2023-04-06T02:41:55;97642.81;;;8.73;55.38
32456;BME280;18912;43.270;27.942;2023-04-06T02:44:22;97643.00;;;8.91;55.17
32456;BME280;18912;43.270;27.942;2023-04-06T02:46:47;97637.19;;;8.55;55.75
32456;BME280;18912;43.270;27.942;2023-04-06T02:49:13;97638.66;;;9.03;54.69
32456;BME280;18912;43.270;27.942;2023-04-06T02:51:39;97645.91;;;9.09;54.70
32456;BME280;18912;43.270;27.942;2023-04-06T02:54:04;97645.06;;;9.09;54.52
32456;BME280;18912;43.270;27.942;2023-04-06T02:56:30;97650.84;;;9.12;54.62
32456;BME280;18912;43.270;27.942;2023-04-06T02:58:55;97640.47;;;9.29;54.06
32456;BME280;18912;43.270;27.942;2023-04-06T03:01:21;97649.19;;;9.24;54.02
32456;BME280;18912;43.270;27.942;2023-04-06T03:03:46;97647.69;;;9.55;53.51
32456;BME280;18912;43.270;27.942;2023-04-06T03:06:12;97645.41;;;9.38;54.41
32456;BME280;18912;43.270;27.942;2023-04-06T03:08:37;97648.28;;;9.57;53.90
32456;BME280;18912;43.270;27.942;2023-04-06T03:11:03;97650.50;;;9.79;53.35
32456;BME280;18912;43.270;27.942;2023-04-06T03:13:28;97639.75;;;9.60;53.46
32456;BME280;18912;43.270;27.942;2023-04-06T03:15:53;97647.16;;;9.84;53.36
32456;BME280;18912;43.270;27.942;2023-04-06T03:18:23;97648.63;;;9.80;53.20
32456;BME280;18912;43.270;27.942;2023-04-06T03:20:49;97653.03;;;9.74;53.45
32456;BME280;18912;43.270;27.942;2023-04-06T03:23:15;97656.53;;;9.75;53.72
32456;BME280;18912;43.270;27.942;2023-04-06T03:25:41;97650.38;;;9.55;54.01
32456;BME280;18912;43.270;27.942;2023-04-06T03:28:06;97646.56;;;9.82;53.30
32456;BME280;18912;43.270;27.942;2023-04-06T03:30:32;97653.19;;;9.86;52.81
32456;BME280;18912;43.270;27.942;2023-04-06T03:32:57;97654.44;;;9.77;53.00
32456;BME280;18912;43.270;27.942;2023-04-06T03:35:24;97646.63;;;9.56;53.92
32456;BME280;18912;43.270;27.942;2023-04-06T03:37:49;97653.81;;;9.75;53.79
32456;BME280;18912;43.270;27.942;2023-04-06T03:40:15;97657.22;;;10.08;52.66
32456;BME280;18912;43.270;27.942;2023-04-06T03:42:41;97646.16;;;9.72;53.47
32456;BME280;18912;43.270;27.942;2023-04-06T03:45:07;97641.78;;;9.71;53.44
32456;BME280;18912;43.270;27.942;2023-04-06T03:47:32;97652.63;;;9.58;53.57
32456;BME280;18912;43.270;27.942;2023-04-06T03:49:58;97647.19;;;9.71;53.29
32456;BME280;18912;43.270;27.942;2023-04-06T03:52:23;97653.97;;;9.22;54.36
32456;BME280;18912;43.270;27.942;2023-04-06T03:54:49;97654.22;;;8.75;55.61
32456;BME280;18912;43.270;27.942;2023-04-06T03:57:14;97655.84;;;8.89;55.48
32456;BME280;18912;43.270;27.942;2023-04-06T03:59:40;97653.78;;;8.72;56.10
32456;BME280;18912;43.270;27.942;2023-04-06T04:02:06;97662.88;;;9.10;55.24
32456;BME280;18912;43.270;27.942;2023-04-06T04:04:31;97660.84;;;8.92;55.43
32456;BME280;18912;43.270;27.942;2023-04-06T04:06:57;97661.22;;;9.28;54.34
32456;BME280;18912;43.270;27.942;2023-04-06T04:09:22;97668.31;;;8.90;55.37
32456;BME280;18912;43.270;27.942;2023-04-06T04:11:48;97661.47;;;8.94;55.46
32456;BME280;18912;43.270;27.942;2023-04-06T04:14:13;97666.41;;;9.30;54.59
32456;BME280;18912;43.270;27.942;2023-04-06T04:16:39;97655.44;;;9.18;54.49
32456;BME280;18912;43.270;27.942;2023-04-06T04:19:06;97664.97;;;9.14;54.57
32456;BME280;18912;43.270;27.942;2023-04-06T04:21:31;97663.06;;;9.41;54.21
32456;BME280;18912;43.270;27.942;2023-04-06T04:23:57;97659.34;;;9.16;54.67
32456;BME280;18912;43.270;27.942;2023-04-06T04:26:22;97665.59;;;9.23;54.72
32456;BME280;18912;43.270;27.942;2023-04-06T04:28:48;97657.50;;;8.97;54.74
32456;BME280;18912;43.270;27.942;2023-04-06T04:31:13;97662.44;;;9.46;54.14
32456;BME280;18912;43.270;27.942;2023-04-06T04:33:39;97658.72;;;9.40;53.80
32456;BME280;18912;43.270;27.942;2023-04-06T04:36:05;97659.38;;;9.09;54.50
32456;BME280;18912;43.270;27.942;2023-04-06T04:38:30;97665.78;;;9.28;54.33
32456;BME280;18912;43.270;27.942;2023-04-06T04:40:56;97668.91;;;9.18;54.35
32456;BME280;18912;43.270;27.942;2023-04-06T04:43:21;97666.31;;;9.69;53.24
32456;BME280;18912;43.270;27.942;2023-04-06T04:45:47;97662.94;;;9.87;53.18
32456;BME280;18912;43.270;27.942;2023-04-06T04:48:12;97655.09;;;9.72;53.30
32456;BME280;18912;43.270;27.942;2023-04-06T04:50:38;97645.78;;;9.62;53.00
32456;BME280;18912;43.270;27.942;2023-04-06T04:53:03;97652.94;;;9.10;54.04
32456;BME280;18912;43.270;27.942;2023-04-06T04:55:31;97649.63;;;9.08;53.82
32456;BME280;18912;43.270;27.942;2023-04-06T04:57:56;97658.34;;;8.84;54.85
32456;BME280;18912;43.270;27.942;2023-04-06T05:00:22;97654.19;;;9.21;53.97
32456;BME280;18912;43.270;27.942;2023-04-06T05:02:47;97655.94;;;9.66;53.05
32456;BME280;18912;43.270;27.942;2023-04-06T05:05:13;97657.91;;;9.26;53.61
32456;BME280;18912;43.270;27.942;2023-04-06T05:07:38;97653.28;;;9.47;53.26
32456;BME280;18912;43.270;27.942;2023-04-06T05:10:05;97666.56;;;9.48;53.50
32456;BME280;18912;43.270;27.942;2023-04-06T05:12:30;97656.66;;;9.22;54.00
32456;BME280;18912;43.270;27.942;2023-04-06T05:14:56;97652.19;;;9.74;53.05
32456;BME280;18912;43.270;27.942;2023-04-06T05:17:22;97656.34;;;9.70;53.08
32456;BME280;18912;43.270;27.942;2023-04-06T05:19:47;97657.81;;;9.72;52.59
32456;BME280;18912;43.270;27.942;2023-04-06T05:22:13;97664.13;;;9.33;53.18
32456;BME280;18912;43.270;27.942;2023-04-06T05:24:41;97663.50;;;9.31;53.65
32456;BME280;18912;43.270;27.942;2023-04-06T05:27:06;97651.16;;;9.62;52.83
32456;BME280;18912;43.270;27.942;2023-04-06T05:29:32;97653.19;;;9.86;52.37
32456;BME280;18912;43.270;27.942;2023-04-06T05:31:58;97655.66;;;9.87;52.16
32456;BME280;18912;43.270;27.942;2023-04-06T05:34:24;97651.06;;;9.88;52.15
32456;BME280;18912;43.270;27.942;2023-04-06T05:36:49;97654.84;;;9.80;52.54
32456;BME280;18912;43.270;27.942;2023-04-06T05:39:15;97658.09;;;9.31;54.26
32456;BME280;18912;43.270;27.942;2023-04-06T05:41:40;97657.03;;;9.46;53.35
32456;BME280;18912;43.270;27.942;2023-04-06T05:44:06;97653.78;;;9.88;52.42
32456;BME280;18912;43.270;27.942;2023-04-06T05:46:31;97661.91;;;9.75;52.98
32456;BME280;18912;43.270;27.942;2023-04-06T05:48:57;97638.84;;;9.85;52.41
32456;BME280;18912;43.270;27.942;2023-04-06T05:51:23;97652.53;;;9.90;52.35
32456;BME280;18912;43.270;27.942;2023-04-06T05:53:48;97648.19;;;9.89;52.46
32456;BME280;18912;43.270;27.942;2023-04-06T05:56:14;97657.59;;;10.24;51.92
32456;BME280;18912;43.270;27.942;2023-04-06T05:58:39;97651.00;;;10.14;51.94
32456;BME280;18912;43.270;27.942;2023-04-06T06:01:05;97651.31;;;10.30;51.67
32456;BME280;18912;43.270;27.942;2023-04-06T06:03:30;97652.97;;;10.31;51.97
32456;BME280;18912;43.270;27.942;2023-04-06T06:06:00;97654.78;;;10.44;51.87
32456;BME280;18912;43.270;27.942;2023-04-06T06:08:26;97654.53;;;10.52;51.19
32456;BME280;18912;43.270;27.942;2023-04-06T06:10:51;97650.78;;;10.09;51.61
32456;BME280;18912;43.270;27.942;2023-04-06T06:13:17;97647.66;;;10.18;51.48
32456;BME280;18912;43.270;27.942;2023-04-06T06:15:42;97651.53;;;10.91;50.69
32456;BME280;18912;43.270;27.942;2023-04-06T06:18:08;97647.59;;;10.63;50.99
32456;BME280;18912;43.270;27.942;2023-04-06T06:20:33;97640.56;;;10.86;50.42
32456;BME280;18912;43.270;27.942;2023-04-06T06:22:59;97655.56;;;10.82;50.32
32456;BME280;18912;43.270;27.942;2023-04-06T06:25:24;97650.81;;;10.47;51.17
32456;BME280;18912;43.270;27.942;2023-04-06T06:27:50;97644.97;;;10.50;51.07
32456;BME280;18912;43.270;27.942;2023-04-06T06:30:16;97645.38;;;10.15;51.49
32456;BME280;18912;43.270;27.942;2023-04-06T06:32:41;97651.78;;;10.83;50.46
32456;BME280;18912;43.270;27.942;2023-04-06T06:35:07;97650.38;;;11.05;49.94
32456;BME280;18912;43.270;27.942;2023-04-06T06:37:32;97650.44;;;10.68;50.74
32456;BME280;18912;43.270;27.942;2023-04-06T06:39:58;97659.56;;;10.73;50.76
32456;BME280;18912;43.270;27.942;2023-04-06T06:42:23;97657.19;;;10.83;50.15
32456;BME280;18912;43.270;27.942;2023-04-06T06:44:49;97653.59;;;11.39;49.62
32456;BME280;18912;43.270;27.942;2023-04-06T06:47:15;97653.09;;;11.05;49.64
32456;BME280;18912;43.270;27.942;2023-04-06T06:49:40;97660.06;;;11.38;49.59
32456;BME280;18912;43.270;27.942;2023-04-06T06:52:06;97655.44;;;11.20;49.83
32456;BME280;18912;43.270;27.942;2023-04-06T06:54:31;97662.13;;;11.17;50.13
32456;BME280;18912;43.270;27.942;2023-04-06T06:56:57;97654.72;;;11.06;49.89
32456;BME280;18912;43.270;27.942;2023-04-06T06:59:22;97649.88;;;11.76;48.60
32456;BME280;18912;43.270;27.942;2023-04-06T07:01:49;97646.41;;;11.51;48.99
32456;BME280;18912;43.270;27.942;2023-04-06T07:04:15;97651.94;;;11.38;48.84
32456;BME280;18912;43.270;27.942;2023-04-06T07:06:40;97645.81;;;12.03;47.91
32456;BME280;18912;43.270;27.942;2023-04-06T07:09:06;97644.16;;;12.50;47.29
32456;BME280;18912;43.270;27.942;2023-04-06T07:11:31;97648.69;;;13.08;46.54
32456;BME280;18912;43.270;27.942;2023-04-06T07:13:57;97650.69;;;13.59;45.64
32456;BME280;18912;43.270;27.942;2023-04-06T07:16:22;97643.72;;;13.75;44.80
32456;BME280;18912;43.270;27.942;2023-04-06T07:18:48;97645.41;;;14.04;44.37
32456;BME280;18912;43.270;27.942;2023-04-06T07:21:13;97646.53;;;14.59;43.25
32456;BME280;18912;43.270;27.942;2023-04-06T07:23:39;97648.22;;;14.21;42.92
32456;BME280;18912;43.270;27.942;2023-04-06T07:26:05;97646.00;;;14.46;42.84
32456;BME280;18912;43.270;27.942;2023-04-06T07:28:30;97649.66;;;14.51;43.72
32456;BME280;18912;43.270;27.942;2023-04-06T07:30:56;97643.81;;;14.59;43.24
32456;BME280;18912;43.270;27.942;2023-04-06T07:33:22;97639.88;;;15.12;42.19
32456;BME280;18912;43.270;27.942;2023-04-06T07:35:47;97640.66;;;15.78;41.21
32456;BME280;18912;43.270;27.942;2023-04-06T07:38:13;97633.38;;;16.27;40.80
32456;BME280;18912;43.270;27.942;2023-04-06T07:40:38;97640.94;;;16.68;40.64
32456;BME280;18912;43.270;27.942;2023-04-06T07:43:04;97633.94;;;17.41;39.07
32456;BME280;18912;43.270;27.942;2023-04-06T07:45:29;97645.56;;;17.53;39.01
32456;BME280;18912;43.270;27.942;2023-04-06T07:47:55;97631.81;;;17.90;37.96
32456;BME280;18912;43.270;27.942;2023-04-06T07:50:21;97626.19;;;17.28;38.81
32456;BME280;18912;43.270;27.942;2023-04-06T07:52:46;97642.44;;;16.54;38.52
32456;BME280;18912;43.270;27.942;2023-04-06T07:55:12;97642.47;;;17.13;39.45
32456;BME280;18912;43.270;27.942;2023-04-06T07:57:37;97645.63;;;17.31;38.74
32456;BME280;18912;43.270;27.942;2023-04-06T08:00:03;97645.97;;;17.40;38.49
32456;BME280;18912;43.270;27.942;2023-04-06T08:02:31;97645.03;;;17.24;38.61
32456;BME280;18912;43.270;27.942;2023-04-06T08:04:57;97639.50;;;16.88;40.11
32456;BME280;18912;43.270;27.942;2023-04-06T08:07:22;97645.47;;;17.85;38.60
32456;BME280;18912;43.270;27.942;2023-04-06T08:09:48;97637.78;;;17.40;38.66
32456;BME280;18912;43.270;27.942;2023-04-06T08:12:14;97641.72;;;16.42;38.33
32456;BME280;18912;43.270;27.942;2023-04-06T08:14:39;97645.50;;;16.85;38.10
32456;BME280;18912;43.270;27.942;2023-04-06T08:17:05;97640.50;;;16.76;38.62
32456;BME280;18912;43.270;27.942;2023-04-06T08:19:30;97638.88;;;16.54;39.10
32456;BME280;18912;43.270;27.942;2023-04-06T08:21:56;97643.53;;;16.10;39.04
32456;BME280;18912;43.270;27.942;2023-04-06T08:24:21;97645.72;;;16.35;39.15
32456;BME280;18912;43.270;27.942;2023-04-06T08:26:47;97653.38;;;15.40;40.11
32456;BME280;18912;43.270;27.942;2023-04-06T08:29:12;97646.31;;;15.55;40.55
32456;BME280;18912;43.270;27.942;2023-04-06T08:31:38;97635.66;;;15.21;40.89
32456;BME280;18912;43.270;27.942;2023-04-06T08:34:04;97650.28;;;15.48;40.71
32456;BME280;18912;43.270;27.942;2023-04-06T08:36:30;97633.78;;;15.76;40.41
32456;BME280;18912;43.270;27.942;2023-04-06T08:38:56;97640.56;;;15.73;39.53
32456;BME280;18912;43.270;27.942;2023-04-06T08:41:22;97642.56;;;15.28;40.42
32456;BME280;18912;43.270;27.942;2023-04-06T08:43:57;97631.06;;;15.76;40.40
32456;BME280;18912;43.270;27.942;2023-04-06T08:46:23;97634.09;;;16.44;39.67
32456;BME280;18912;43.270;27.942;2023-04-06T08:48:55;97633.69;;;15.87;39.77
32456;BME280;18912;43.270;27.942;2023-04-06T08:51:23;97632.78;;;16.04;39.24
32456;BME280;18912;43.270;27.942;2023-04-06T08:53:49;97640.53;;;15.52;41.17
32456;BME280;18912;43.270;27.942;2023-04-06T08:56:15;97632.34;;;16.33;39.13
32456;BME280;18912;43.270;27.942;2023-04-06T08:58:41;97621.06;;;17.00;39.03
32456;BME280;18912;43.270;27.942;2023-04-06T09:01:08;97626.22;;;17.64;37.24
32456;BME280;18912;43.270;27.942;2023-04-06T09:03:38;97631.94;;;17.63;38.47
32456;BME280;18912;43.270;27.942;2023-04-06T09:06:08;97631.25;;;17.83;37.46
32456;BME280;18912;43.270;27.942;2023-04-06T09:08:34;97635.69;;;17.52;36.68
32456;BME280;18912;43.270;27.942;2023-04-06T09:11:03;97627.75;;;17.97;36.62
32456;BME280;18912;43.270;27.942;2023-04-06T09:13:29;97628.16;;;17.69;36.96
32456;BME280;18912;43.270;27.942;2023-04-06T09:16:04;97632.16;;;17.25;36.75
32456;BME280;18912;43.270;27.942;2023-04-06T09:18:32;97642.25;;;16.93;38.45
32456;BME280;18912;43.270;27.942;2023-04-06T09:21:06;97635.75;;;16.45;38.77
32456;BME280;18912;43.270;27.942;2023-04-06T09:23:32;97641.81;;;16.26;39.10
32456;BME280;18912;43.270;27.942;2023-04-06T09:26:11;97643.81;;;15.37;40.29
32456;BME280;18912;43.270;27.942;2023-04-06T09:31:10;97642.25;;;15.41;41.02
32456;BME280;18912;43.270;27.942;2023-04-06T09:33:44;97647.19;;;15.28;40.48
32456;BME280;18912;43.270;27.942;2023-04-06T09:36:11;97643.44;;;15.83;40.58
32456;BME280;18912;43.270;27.942;2023-04-06T09:38:37;97649.59;;;15.08;41.31
32456;BME280;18912;43.270;27.942;2023-04-06T09:41:03;97641.66;;;15.39;41.15
32456;BME280;18912;43.270;27.942;2023-04-06T09:43:29;97642.41;;;15.35;41.17
32456;BME280;18912;43.270;27.942;2023-04-06T09:45:56;97638.25;;;14.82;41.99
32456;BME280;18912;43.270;27.942;2023-04-06T09:48:24;97635.97;;;14.46;41.89
32456;BME280;18912;43.270;27.942;2023-04-06T09:50:50;97637.53;;;15.37;41.88
32456;BME280;18912;43.270;27.942;2023-04-06T09:53:20;97642.25;;;15.25;41.89
32456;BME280;18912;43.270;27.942;2023-04-06T09:55:48;97643.00;;;15.92;41.31
32456;BME280;18912;43.270;27.942;2023-04-06T09:58:17;97641.81;;;16.74;39.85
32456;BME280;18912;43.270;27.942;2023-04-06T10:00:51;97638.59;;;16.77;39.53
32456;BME280;18912;43.270;27.942;2023-04-06T10:03:21;97646.13;;;15.62;40.47
32456;BME280;18912;43.270;27.942;2023-04-06T10:05:55;97638.06;;;16.10;40.29
32456;BME280;18912;43.270;27.942;2023-04-06T10:08:24;97639.91;;;15.66;40.50
32456;BME280;18912;43.270;27.942;2023-04-06T10:10:53;97634.69;;;16.25;40.95
32456;BME280;18912;43.270;27.942;2023-04-06T10:13:19;97645.16;;;15.35;41.74
32456;BME280;18912;43.270;27.942;2023-04-06T10:15:45;97649.03;;;15.55;41.14
32456;BME280;18912;43.270;27.942;2023-04-06T10:18:11;97638.16;;;16.42;39.84
32456;BME280;18912;43.270;27.942;2023-04-06T10:21:06;97634.44;;;16.05;40.66
32456;BME280;18912;43.270;27.942;2023-04-06T10:23:29;97629.38;;;16.13;39.72
32456;BME280;18912;43.270;27.942;2023-04-06T10:25:57;97635.19;;;16.00;40.09
32456;BME280;18912;43.270;27.942;2023-04-06T10:28:24;97642.69;;;15.50;40.51
32456;BME280;18912;43.270;27.942;2023-04-06T10:30:56;97647.00;;;15.67;41.11
32456;BME280;18912;43.270;27.942;2023-04-06T10:33:23;97638.06;;;16.10;40.10
32456;BME280;18912;43.270;27.942;2023-04-06T10:35:48;97633.28;;;16.44;40.70
32456;BME280;18912;43.270;27.942;2023-04-06T10:38:14;97639.06;;;17.01;39.76
32456;BME280;18912;43.270;27.942;2023-04-06T10:40:41;97633.84;;;16.67;39.55
32456;BME280;18912;43.270;27.942;2023-04-06T10:43:19;97635.34;;;17.12;38.94
32456;BME280;18912;43.270;27.942;2023-04-06T10:45:54;97634.91;;;16.66;39.70
32456;BME280;18912;43.270;27.942;2023-04-06T10:48:20;97623.84;;;16.51;39.65
32456;BME280;18912;43.270;27.942;2023-04-06T10:50:51;97624.84;;;16.99;38.97
32456;BME280;18912;43.270;27.942;2023-04-06T10:53:27;97622.22;;;17.09;39.20
32456;BME280;18912;43.270;27.942;2023-04-06T10:55:55;97626.78;;;17.30;38.78
32456;BME280;18912;43.270;27.942;2023-04-06T10:58:24;97622.13;;;17.67;39.03
32456;BME280;18912;43.270;27.942;2023-04-06T11:00:50;97608.59;;;17.87;38.21
32456;BME280;18912;43.270;27.942;2023-04-06T11:03:17;97623.44;;;18.06;37.80
32456;BME280;18912;43.270;27.942;2023-04-06T11:05:46;97620.00;;;17.37;37.41
32456;BME280;18912;43.270;27.942;2023-04-06T11:08:30;97623.50;;;17.33;38.38
32456;BME280;18912;43.270;27.942;2023-04-06T11:11:09;97620.66;;;16.86;38.49
32456;BME280;18912;43.270;27.942;2023-04-06T11:13:58;97621.47;;;17.50;38.44
32456;BME280;18912;43.270;27.942;2023-04-06T11:16:24;97630.81;;;17.22;38.39
32456;BME280;18912;43.270;27.942;2023-04-06T11:19:10;97622.84;;;17.94;37.45
32456;BME280;18912;43.270;27.942;2023-04-06T11:21:43;97623.06;;;16.34;38.72
32456;BME280;18912;43.270;27.942;2023-04-06T11:24:14;97626.53;;;17.00;38.52
32456;BME280;18912;43.270;27.942;2023-04-06T11:26:42;97617.97;;;16.64;38.53
32456;BME280;18912;43.270;27.942;2023-04-06T11:29:09;97610.47;;;16.50;39.76
32456;BME280;18912;43.270;27.942;2023-04-06T11:31:44;97610.72;;;17.07;38.35
32456;BME280;18912;43.270;27.942;2023-04-06T11:34:12;97614.38;;;16.59;38.66
32456;BME280;18912;43.270;27.942;2023-04-06T11:36:42;97608.75;;;16.97;38.42
32456;BME280;18912;43.270;27.942;2023-04-06T11:39:08;97609.00;;;16.42;38.50
32456;BME280;18912;43.270;27.942;2023-04-06T11:41:33;97611.06;;;16.83;38.24
32456;BME280;18912;43.270;27.942;2023-04-06T11:44:01;97612.81;;;16.95;38.50
32456;BME280;18912;43.270;27.942;2023-04-06T11:46:28;97612.56;;;17.33;37.12
32456;BME280;18912;43.270;27.942;2023-04-06T11:48:58;97607.13;;;17.01;38.08
32456;BME280;18912;43.270;27.942;2023-04-06T11:51:24;97599.97;;;16.95;37.76
32456;BME280;18912;43.270;27.942;2023-04-06T11:53:49;97608.63;;;16.55;39.13
32456;BME280;18912;43.270;27.942;2023-04-06T11:56:28;97599.13;;;16.63;38.39
32456;BME280;18912;43.270;27.942;2023-04-06T11:58:56;97599.97;;;16.63;38.81
32456;BME280;18912;43.270;27.942;2023-04-06T12:01:23;97606.50;;;16.62;38.86
32456;BME280;18912;43.270;27.942;2023-04-06T12:03:49;97596.09;;;16.38;38.80
32456;BME280;18912;43.270;27.942;2023-04-06T12:06:15;97596.84;;;16.81;38.77
32456;BME280;18912;43.270;27.942;2023-04-06T12:08:40;97594.94;;;17.14;37.95
32456;BME280;18912;43.270;27.942;2023-04-06T12:11:06;97595.91;;;16.44;39.23
32456;BME280;18912;43.270;27.942;2023-04-06T12:13:32;97591.81;;;16.68;38.90
32456;BME280;18912;43.270;27.942;2023-04-06T12:15:57;97591.59;;;17.02;38.60
32456;BME280;18912;43.270;27.942;2023-04-06T12:18:23;97598.41;;;16.72;38.44
32456;BME280;18912;43.270;27.942;2023-04-06T12:20:48;97587.16;;;16.96;38.49
32456;BME280;18912;43.270;27.942;2023-04-06T12:23:14;97600.56;;;16.70;38.32
32456;BME280;18912;43.270;27.942;2023-04-06T12:25:42;97602.25;;;17.03;38.15
32456;BME280;18912;43.270;27.942;2023-04-06T12:28:07;97597.78;;;17.29;37.77
32456;BME280;18912;43.270;27.942;2023-04-06T12:30:34;97598.00;;;16.86;38.77
32456;BME280;18912;43.270;27.942;2023-04-06T12:33:00;97600.25;;;16.19;38.12
32456;BME280;18912;43.270;27.942;2023-04-06T12:35:27;97589.38;;;16.99;37.93
32456;BME280;18912;43.270;27.942;2023-04-06T12:37:52;97597.25;;;16.95;37.87
32456;BME280;18912;43.270;27.942;2023-04-06T12:40:18;97595.53;;;16.84;37.82
32456;BME280;18912;43.270;27.942;2023-04-06T12:42:44;97598.81;;;16.86;37.73
32456;BME280;18912;43.270;27.942;2023-04-06T12:45:11;97599.81;;;17.07;38.08
32456;BME280;18912;43.270;27.942;2023-04-06T12:47:36;97601.19;;;16.77;37.49
32456;BME280;18912;43.270;27.942;2023-04-06T12:50:03;97597.38;;;16.78;37.37
32456;BME280;18912;43.270;27.942;2023-04-06T12:52:30;97596.66;;;16.88;37.44
32456;BME280;18912;43.270;27.942;2023-04-06T12:54:57;97592.63;;;16.96;38.03